createdAt,value
2022-10-24T00:00:12.188Z,3.47
2022-10-24T00:02:57.592Z,3.60
2022-10-24T00:05:45.349Z,3.50
2022-10-24T00:08:30.729Z,3.45
2022-10-24T00:11:19.361Z,3.33
2022-10-24T00:14:04.579Z,3.78
2022-10-24T00:16:49.507Z,3.70
2022-10-24T00:19:35.034Z,3.28
2022-10-24T00:22:20.834Z,3.50
2022-10-24T00:25:06.753Z,3.90
2022-10-24T00:27:51.920Z,4.10
2022-10-24T00:30:36.874Z,3.95
2022-10-24T00:33:22.232Z,3.70
2022-10-24T00:36:14.543Z,4.43
2022-10-24T00:38:59.378Z,4.38
2022-10-24T00:41:44.337Z,3.70
2022-10-24T00:44:32.628Z,3.83
2022-10-24T00:47:20.365Z,4.20
2022-10-24T00:50:14.082Z,4.25
2022-10-24T00:52:59.354Z,4.25
2022-10-24T00:55:48.000Z,3.90
2022-10-24T00:58:37.432Z,4.50
2022-10-24T01:01:24.206Z,4.15
2022-10-24T01:04:13.077Z,3.97
2022-10-24T01:07:08.062Z,3.72
2022-10-24T01:10:07.715Z,4.38
2022-10-24T01:13:19.573Z,3.75
2022-10-24T01:16:12.318Z,3.95
2022-10-24T01:19:11.739Z,3.83
2022-10-24T01:22:01.135Z,4.10
2022-10-24T01:25:04.932Z,4.07
2022-10-24T01:28:12.974Z,3.50
2022-10-24T01:31:27.466Z,3.75
2022-10-24T01:34:25.118Z,3.95
2022-10-24T01:37:19.859Z,4.72
2022-10-24T01:40:32.164Z,3.95
2022-10-24T01:43:22.098Z,3.65
2022-10-24T01:46:12.886Z,3.72
2022-10-24T01:49:07.315Z,4.15
2022-10-24T01:51:57.090Z,4.15
2022-10-24T01:54:44.627Z,4.20
2022-10-24T01:57:32.321Z,4.00
2022-10-24T02:00:20.634Z,4.15
2022-10-24T02:03:13.418Z,3.53
2022-10-24T02:06:28.359Z,4.15
2022-10-24T02:09:17.426Z,4.28
2022-10-24T02:12:03.278Z,4.68
2022-10-24T02:14:57.742Z,4.40
2022-10-24T02:17:43.083Z,4.15
2022-10-24T02:20:34.040Z,4.00
2022-10-24T02:23:30.931Z,3.95
2022-10-24T02:26:42.654Z,4.00
2022-10-24T02:29:31.535Z,4.03
2022-10-24T02:32:25.138Z,4.10
2022-10-24T02:35:12.828Z,4.10
2022-10-24T02:38:04.346Z,4.63
2022-10-24T02:40:52.107Z,4.38
2022-10-24T02:43:40.622Z,5.07
2022-10-24T02:46:27.003Z,4.65
2022-10-24T02:49:13.043Z,4.45
2022-10-24T02:51:58.981Z,4.53
2022-10-24T02:54:44.397Z,4.82
2022-10-24T02:57:29.132Z,3.92
2022-10-24T03:00:14.599Z,4.32
2022-10-24T03:02:59.981Z,4.07
2022-10-24T03:05:44.728Z,4.32
2022-10-24T03:08:30.050Z,4.20
2022-10-24T03:11:15.097Z,4.20
2022-10-24T03:14:00.889Z,4.18
2022-10-24T03:16:46.175Z,4.25
2022-10-24T03:19:31.467Z,4.53
2022-10-24T03:22:16.322Z,4.20
2022-10-24T03:25:01.827Z,4.20
2022-10-24T03:27:47.292Z,4.07
2022-10-24T03:30:32.561Z,4.40
2022-10-24T03:33:17.638Z,4.65
2022-10-24T03:36:02.881Z,4.53
2022-10-24T03:38:48.014Z,3.92
2022-10-24T03:41:32.821Z,4.53
2022-10-24T03:44:17.735Z,4.00
2022-10-24T03:47:02.642Z,4.70
2022-10-24T03:49:47.706Z,4.00
2022-10-24T03:52:32.808Z,4.05
2022-10-24T03:55:18.258Z,3.85
2022-10-24T03:58:03.737Z,4.25
2022-10-24T04:00:49.102Z,4.05
2022-10-24T04:03:34.278Z,4.00
2022-10-24T04:06:19.258Z,4.20
2022-10-24T04:09:04.675Z,4.50
2022-10-24T04:11:49.788Z,3.80
2022-10-24T04:14:35.225Z,4.28
2022-10-24T04:17:20.327Z,4.53
2022-10-24T04:20:06.594Z,3.92
2022-10-24T04:22:51.559Z,4.25
2022-10-24T04:25:36.954Z,4.60
2022-10-24T04:28:21.890Z,4.63
2022-10-24T04:31:07.202Z,4.30
2022-10-24T04:33:52.398Z,4.93
2022-10-24T04:36:37.485Z,4.22
2022-10-24T04:39:22.200Z,4.50
2022-10-24T04:42:07.015Z,4.25
2022-10-24T04:44:52.514Z,4.35
2022-10-24T04:47:37.426Z,4.45
2022-10-24T04:50:23.546Z,4.05
2022-10-24T04:53:09.087Z,4.32
2022-10-24T04:55:54.131Z,4.20
2022-10-24T04:58:39.398Z,4.45
2022-10-24T05:01:24.410Z,4.38
2022-10-24T05:04:09.907Z,4.53
2022-10-24T05:06:54.833Z,4.15
2022-10-24T05:09:39.921Z,3.60
2022-10-24T05:12:24.769Z,3.75
2022-10-24T05:15:11.154Z,4.20
2022-10-24T05:17:57.330Z,3.75
2022-10-24T05:20:42.499Z,3.60
2022-10-24T05:23:27.826Z,3.72
2022-10-24T05:26:12.771Z,3.70
2022-10-24T05:28:58.022Z,3.80
2022-10-24T05:31:43.395Z,3.63
2022-10-24T05:34:28.322Z,3.80
2022-10-24T05:37:14.104Z,3.80
2022-10-24T05:39:59.005Z,3.70
2022-10-24T05:42:44.307Z,3.45
2022-10-24T05:45:29.645Z,3.58
2022-10-24T05:48:16.224Z,4.00
2022-10-24T05:51:01.323Z,3.42
2022-10-24T05:53:46.392Z,3.67
2022-10-24T05:56:31.810Z,3.63
2022-10-24T05:59:16.754Z,3.63
2022-10-24T06:02:02.311Z,3.55
2022-10-24T06:04:48.161Z,3.40
2022-10-24T06:07:33.764Z,3.50
2022-10-24T06:10:19.047Z,3.60
2022-10-24T06:13:04.168Z,3.13
2022-10-24T06:15:49.181Z,3.20
2022-10-24T06:18:35.364Z,3.20
2022-10-24T06:21:20.641Z,3.45
2022-10-24T06:24:05.497Z,3.25
2022-10-24T06:26:50.547Z,2.88
2022-10-24T06:29:36.404Z,3.33
2022-10-24T06:32:21.335Z,3.10
2022-10-24T06:35:07.429Z,3.00
2022-10-24T06:37:52.574Z,3.30
2022-10-24T06:40:38.051Z,2.90
2022-10-24T06:43:23.678Z,3.05
2022-10-24T06:46:10.781Z,2.85
2022-10-24T06:48:56.039Z,3.20
2022-10-24T06:51:41.591Z,2.63
2022-10-24T06:54:30.079Z,3.10
2022-10-24T06:57:15.676Z,2.97
2022-10-24T07:00:00.674Z,2.55
2022-10-24T07:02:48.310Z,2.53
2022-10-24T07:05:33.469Z,3.03
2022-10-24T07:08:18.310Z,2.95
2022-10-24T07:11:03.853Z,3.17
2022-10-24T07:13:49.173Z,2.35
2022-10-24T07:16:34.228Z,2.70
2022-10-24T07:19:19.165Z,3.13
2022-10-24T07:22:04.176Z,2.60
2022-10-24T07:24:55.758Z,2.88
2022-10-24T07:27:41.048Z,3.35
2022-10-24T07:30:26.083Z,2.92
2022-10-24T07:33:11.633Z,2.83
2022-10-24T07:35:56.636Z,2.80
2022-10-24T07:38:41.855Z,2.70
2022-10-24T07:41:29.609Z,2.78
2022-10-24T07:44:15.065Z,3.00
2022-10-24T07:47:00.461Z,2.97
2022-10-24T07:49:45.836Z,2.88
2022-10-24T07:52:31.354Z,2.53
2022-10-24T07:55:16.783Z,2.58
2022-10-24T07:58:02.253Z,2.72
2022-10-24T08:00:47.222Z,3.13
2022-10-24T08:03:32.172Z,2.30
2022-10-24T08:06:21.305Z,2.95
2022-10-24T08:09:06.338Z,2.60
2022-10-24T08:11:51.417Z,3.25
2022-10-24T08:14:41.021Z,2.90
2022-10-24T08:17:26.304Z,2.78
2022-10-24T08:20:11.773Z,2.72
2022-10-24T08:22:56.739Z,2.65
2022-10-24T08:25:41.590Z,2.80
2022-10-24T08:28:26.427Z,2.45
2022-10-24T08:31:17.156Z,2.33
2022-10-24T08:34:02.291Z,2.53
2022-10-24T08:36:49.049Z,2.40
2022-10-24T08:39:35.700Z,2.50
2022-10-24T08:42:23.368Z,2.30
2022-10-24T08:45:17.024Z,2.42
2022-10-24T08:48:09.366Z,2.40
2022-10-24T08:51:02.493Z,2.25
2022-10-24T08:53:49.081Z,2.20
2022-10-24T08:56:34.161Z,2.42
2022-10-24T08:59:20.680Z,2.28
2022-10-24T09:02:12.706Z,2.20
2022-10-24T09:05:21.494Z,2.13
2022-10-24T09:08:23.024Z,2.30
2022-10-24T09:11:16.477Z,2.35
2022-10-24T09:14:07.370Z,2.33
2022-10-24T09:17:25.613Z,2.17
2022-10-24T09:20:29.668Z,2.05
2022-10-24T09:23:16.284Z,2.63
2022-10-24T09:26:05.126Z,2.10
2022-10-24T09:28:50.162Z,2.00
2022-10-24T09:31:35.590Z,2.10
2022-10-24T09:34:21.266Z,2.40
2022-10-24T09:37:06.358Z,2.17
2022-10-24T09:40:19.075Z,1.80
2022-10-24T09:43:18.674Z,2.10
2022-10-24T09:46:10.110Z,1.83
2022-10-24T09:48:59.241Z,2.10
2022-10-24T09:51:47.888Z,2.05
2022-10-24T09:54:35.302Z,2.00
2022-10-24T09:57:20.090Z,1.90
2022-10-24T10:00:05.873Z,2.15
2022-10-24T10:03:23.869Z,2.10
2022-10-24T10:06:18.461Z,1.85
2022-10-24T10:09:14.690Z,1.85
2022-10-24T10:12:03.331Z,2.00
2022-10-24T10:14:48.822Z,1.70
2022-10-24T10:17:34.249Z,2.25
2022-10-24T10:20:26.899Z,1.80
2022-10-24T10:23:25.865Z,2.03
2022-10-24T10:26:17.111Z,1.80
2022-10-24T10:29:05.086Z,1.80
2022-10-24T10:31:58.221Z,1.75
2022-10-24T10:34:49.965Z,1.80
2022-10-24T10:37:42.800Z,1.80
2022-10-24T10:40:40.169Z,2.30
2022-10-24T10:43:44.000Z,2.53
2022-10-24T10:46:46.586Z,1.88
2022-10-24T10:49:37.069Z,1.90
2022-10-24T10:52:31.693Z,1.98
2022-10-24T10:55:16.959Z,1.90
2022-10-24T10:58:01.970Z,1.90
2022-10-24T11:01:09.298Z,1.90
2022-10-24T11:04:01.875Z,1.90
2022-10-24T11:06:52.095Z,2.20
2022-10-24T11:09:42.981Z,2.03
2022-10-24T11:12:39.190Z,2.00
2022-10-24T11:15:26.660Z,1.80
2022-10-24T11:18:21.772Z,2.13
2022-10-24T11:21:09.774Z,2.00
2022-10-24T11:24:03.801Z,2.22
2022-10-24T11:27:06.880Z,2.10
2022-10-24T11:30:04.419Z,1.77
2022-10-24T11:32:56.346Z,2.20
2022-10-24T11:35:59.786Z,2.03
2022-10-24T11:38:51.319Z,2.33
2022-10-24T11:41:55.415Z,2.05
2022-10-24T11:45:07.448Z,1.90
2022-10-24T11:48:02.715Z,1.90
2022-10-24T11:50:58.784Z,2.10
2022-10-24T11:53:51.346Z,2.20
2022-10-24T11:56:43.920Z,1.88
2022-10-24T11:59:29.792Z,1.90
2022-10-24T12:02:43.954Z,1.65
2022-10-24T12:06:10.128Z,2.13
2022-10-24T12:09:26.968Z,1.95
2022-10-24T12:12:41.302Z,1.90
2022-10-24T12:15:41.616Z,2.05
2022-10-24T12:18:32.986Z,2.05
2022-10-24T12:21:26.163Z,2.20
2022-10-24T12:24:41.049Z,2.60
2022-10-24T12:27:36.988Z,1.90
2022-10-24T12:30:24.192Z,2.50
2022-10-24T12:33:23.543Z,1.80
2022-10-24T12:36:09.545Z,2.22
2022-10-24T12:38:54.661Z,2.40
2022-10-24T12:41:41.156Z,2.22
2022-10-24T12:44:29.475Z,2.60
2022-10-24T12:47:37.195Z,2.10
2022-10-24T12:50:22.258Z,2.08
2022-10-24T12:53:38.255Z,2.28
2022-10-24T12:56:23.935Z,1.80
2022-10-24T12:59:27.470Z,1.88
2022-10-24T13:02:15.654Z,2.00
2022-10-24T13:05:10.029Z,3.03
2022-10-24T13:08:04.061Z,2.40
2022-10-24T13:11:08.111Z,2.13
2022-10-24T13:14:08.734Z,1.77
2022-10-24T13:17:18.083Z,2.15
2022-10-24T13:20:22.353Z,2.08
2022-10-24T13:23:20.338Z,1.83
2022-10-24T13:26:06.024Z,1.88
2022-10-24T13:28:51.291Z,2.13
2022-10-24T13:31:36.143Z,2.00
2022-10-24T13:34:52.296Z,2.03
2022-10-24T13:37:50.038Z,2.42
2022-10-24T13:40:35.808Z,2.08
2022-10-24T13:43:21.263Z,2.20
2022-10-24T13:46:13.085Z,2.00
2022-10-24T13:49:00.331Z,1.90
2022-10-24T13:51:52.275Z,2.30
2022-10-24T13:54:38.779Z,1.85
2022-10-24T13:57:31.441Z,1.90
2022-10-24T14:00:39.804Z,2.17
2022-10-24T14:03:27.756Z,2.00
2022-10-24T14:06:13.249Z,2.30
2022-10-24T14:09:07.311Z,1.98
2022-10-24T14:11:53.474Z,2.25
2022-10-24T14:14:39.741Z,1.98
2022-10-24T14:17:31.995Z,2.20
2022-10-24T14:20:21.951Z,1.70
2022-10-24T14:23:25.005Z,2.00
2022-10-24T14:26:17.539Z,2.50
2022-10-24T14:29:02.887Z,2.60
2022-10-24T14:31:55.984Z,1.90
2022-10-24T14:34:41.217Z,2.00
2022-10-24T14:37:35.661Z,2.05
2022-10-24T14:40:20.788Z,2.15
2022-10-24T14:43:09.642Z,2.10
2022-10-24T14:46:09.325Z,2.20
2022-10-24T14:48:54.163Z,2.25
2022-10-24T14:51:40.493Z,2.13
2022-10-24T14:54:31.809Z,2.08
2022-10-24T14:57:21.188Z,1.83
2022-10-24T15:00:08.131Z,2.33
2022-10-24T15:02:56.746Z,1.73
2022-10-24T15:05:41.818Z,1.83
2022-10-24T15:08:34.635Z,2.00
2022-10-24T15:11:21.909Z,2.00
2022-10-24T15:14:36.006Z,2.13
2022-10-24T15:17:32.762Z,2.40
2022-10-24T15:20:25.104Z,1.83
2022-10-24T15:23:21.735Z,2.25
2022-10-24T15:26:27.694Z,1.90
2022-10-24T15:29:13.220Z,2.60
2022-10-24T15:31:59.621Z,2.53
2022-10-24T15:34:44.430Z,2.63
2022-10-24T15:37:29.641Z,2.42
2022-10-24T15:40:20.416Z,2.75
2022-10-24T15:43:05.511Z,2.80
2022-10-24T15:45:50.535Z,2.50
2022-10-24T15:48:37.698Z,2.88
2022-10-24T15:51:24.544Z,2.30
2022-10-24T15:54:11.894Z,2.50
2022-10-24T15:56:59.475Z,2.05
2022-10-24T15:59:46.536Z,2.33
2022-10-24T16:02:33.721Z,2.25
2022-10-24T16:05:22.896Z,2.80
2022-10-24T16:08:13.223Z,2.92
2022-10-24T16:10:58.340Z,2.33
2022-10-24T16:13:44.076Z,2.22
2022-10-24T16:16:29.132Z,2.80
2022-10-24T16:19:14.456Z,2.42
2022-10-24T16:21:59.910Z,2.40
2022-10-24T16:24:44.885Z,2.97
2022-10-24T16:27:29.788Z,2.42
2022-10-24T16:30:16.717Z,2.50
2022-10-24T16:33:02.966Z,2.58
2022-10-24T16:35:48.291Z,2.72
2022-10-24T16:38:32.970Z,2.80
2022-10-24T16:41:20.685Z,2.80
2022-10-24T16:44:05.818Z,2.97
2022-10-24T16:46:53.131Z,2.85
2022-10-24T16:49:38.305Z,2.67
2022-10-24T16:52:23.308Z,2.75
2022-10-24T16:55:11.216Z,3.30
2022-10-24T16:57:57.277Z,3.65
2022-10-24T17:00:42.665Z,3.55
2022-10-24T17:03:27.817Z,2.78
2022-10-24T17:06:13.593Z,3.90
2022-10-24T17:08:58.570Z,4.07
2022-10-24T17:11:45.990Z,4.38
2022-10-24T17:14:36.672Z,4.60
2022-10-24T17:17:21.768Z,6.47
2022-10-24T17:20:07.818Z,3.50
2022-10-24T17:22:53.697Z,2.65
2022-10-24T17:25:39.429Z,2.83
2022-10-24T17:28:24.868Z,3.10
2022-10-24T17:31:10.169Z,3.05
2022-10-24T17:33:55.529Z,3.90
2022-10-24T17:36:45.760Z,3.75
2022-10-24T17:39:40.373Z,3.28
2022-10-24T17:42:28.308Z,3.83
2022-10-24T17:45:24.015Z,3.40
2022-10-24T17:48:10.158Z,3.90
2022-10-24T17:50:58.088Z,3.28
2022-10-24T17:53:43.493Z,3.42
2022-10-24T17:56:28.885Z,3.63
2022-10-24T17:59:13.890Z,3.58
2022-10-24T18:01:59.200Z,3.20
2022-10-24T18:04:44.343Z,3.80
2022-10-24T18:07:29.791Z,3.70
2022-10-24T18:10:16.186Z,3.50
2022-10-24T18:13:01.649Z,3.35
2022-10-24T18:15:46.752Z,3.42
2022-10-24T18:18:32.074Z,3.65
2022-10-24T18:21:20.254Z,3.58
2022-10-24T18:24:07.459Z,3.28
2022-10-24T18:26:52.812Z,3.63
2022-10-24T18:29:37.825Z,3.42
2022-10-24T18:32:23.222Z,3.65
2022-10-24T18:35:08.886Z,3.72
2022-10-24T18:37:54.389Z,3.28
2022-10-24T18:40:39.942Z,3.65
2022-10-24T18:43:25.351Z,3.20
2022-10-24T18:46:11.740Z,3.78
2022-10-24T18:48:57.660Z,3.50
2022-10-24T18:51:57.820Z,3.22
2022-10-24T18:55:02.252Z,3.33
2022-10-24T18:57:49.735Z,3.72
2022-10-24T19:00:35.149Z,3.72
2022-10-24T19:03:35.598Z,3.33
2022-10-24T19:06:26.005Z,3.60
2022-10-24T19:09:19.954Z,3.42
2022-10-24T19:12:05.566Z,3.22
2022-10-24T19:14:51.345Z,3.67
2022-10-24T19:17:36.586Z,3.88
2022-10-24T19:20:23.516Z,3.80
2022-10-24T19:23:13.466Z,4.10
2022-10-24T19:25:58.730Z,3.88
2022-10-24T19:28:44.097Z,3.67
2022-10-24T19:31:29.511Z,3.97
2022-10-24T19:34:14.460Z,3.58
2022-10-24T19:36:59.711Z,3.88
2022-10-24T19:39:44.975Z,3.22
2022-10-24T19:42:30.274Z,3.85
2022-10-24T19:45:15.716Z,3.72
2022-10-24T19:48:01.098Z,3.50
2022-10-24T19:50:46.446Z,3.30
2022-10-24T19:53:35.592Z,2.95
2022-10-24T19:56:25.017Z,3.03
2022-10-24T19:59:10.736Z,2.42
2022-10-24T20:01:55.654Z,2.47
2022-10-24T20:04:41.918Z,2.13
2022-10-24T20:07:27.755Z,2.30
2022-10-24T20:10:13.246Z,2.30
2022-10-24T20:12:58.683Z,2.72
2022-10-24T20:15:43.556Z,2.35
2022-10-24T20:18:32.721Z,3.00
2022-10-24T20:21:18.721Z,2.60
2022-10-24T20:24:04.176Z,2.70
2022-10-24T20:26:50.291Z,2.95
2022-10-24T20:29:36.071Z,2.78
2022-10-24T20:32:21.195Z,2.90
2022-10-24T20:35:07.475Z,2.85
2022-10-24T20:37:52.664Z,2.92
2022-10-24T20:40:37.845Z,2.40
2022-10-24T20:43:22.688Z,2.20
2022-10-24T20:46:10.474Z,2.50
2022-10-24T20:48:55.697Z,2.13
2022-10-24T20:51:41.651Z,1.92
2022-10-24T20:54:26.819Z,1.85
2022-10-24T20:57:12.177Z,2.05
2022-10-24T20:59:57.510Z,2.33
2022-10-24T21:02:42.468Z,2.17
2022-10-24T21:05:28.009Z,2.03
2022-10-24T21:08:13.310Z,2.25
2022-10-24T21:10:58.221Z,2.25
2022-10-24T21:13:43.995Z,2.10
2022-10-24T21:16:29.894Z,1.95
2022-10-24T21:19:14.728Z,2.45
2022-10-24T21:21:59.621Z,2.58
2022-10-24T21:24:44.446Z,2.60
2022-10-24T21:27:29.441Z,2.45
2022-10-24T21:30:14.872Z,2.05
2022-10-24T21:33:00.320Z,2.30
2022-10-24T21:35:45.564Z,2.42
2022-10-24T21:38:31.021Z,1.90
2022-10-24T21:41:17.082Z,2.35
2022-10-24T21:44:01.932Z,2.13
2022-10-24T21:46:47.228Z,2.20
2022-10-24T21:49:32.056Z,2.13
2022-10-24T21:52:17.051Z,2.15
2022-10-24T21:55:01.903Z,2.00
2022-10-24T21:57:46.804Z,2.30
2022-10-24T22:00:32.635Z,2.35
2022-10-24T22:03:19.704Z,2.13
2022-10-24T22:06:04.593Z,2.17
2022-10-24T22:08:51.491Z,1.77
2022-10-24T22:11:37.486Z,1.90
2022-10-24T22:14:22.804Z,2.25
2022-10-24T22:17:07.901Z,2.10
2022-10-24T22:19:53.411Z,2.10
2022-10-24T22:22:38.365Z,2.25
2022-10-24T22:25:23.583Z,2.33
2022-10-24T22:28:08.752Z,2.75
2022-10-24T22:30:54.305Z,2.08
2022-10-24T22:33:40.642Z,2.17
2022-10-24T22:36:56.327Z,2.53
2022-10-24T22:39:41.547Z,2.22
2022-10-24T22:42:26.977Z,2.28
2022-10-24T22:45:12.798Z,2.40
2022-10-24T22:48:16.207Z,2.20
2022-10-24T22:51:01.475Z,2.40
2022-10-24T22:53:46.861Z,2.70
2022-10-24T22:56:32.300Z,2.30
2022-10-24T22:59:17.616Z,2.10
2022-10-24T23:02:28.128Z,2.53
2022-10-24T23:08:40.228Z,2.50
2022-10-24T23:11:25.342Z,2.90
2022-10-24T23:14:11.640Z,2.72
2022-10-24T23:16:58.909Z,3.00
2022-10-24T23:19:45.053Z,2.92
2022-10-24T23:22:33.012Z,2.90
2022-10-24T23:25:18.881Z,3.17
2022-10-24T23:28:27.276Z,3.35
2022-10-24T23:31:12.793Z,4.20
2022-10-24T23:33:58.132Z,3.92
2022-10-24T23:36:44.470Z,3.63
2022-10-24T23:39:33.959Z,4.25
2022-10-24T23:42:19.174Z,3.95
2022-10-24T23:45:04.855Z,4.60
2022-10-24T23:48:17.585Z,4.57
2022-10-24T23:51:11.896Z,4.18
2022-10-24T23:53:57.447Z,4.32
2022-10-24T23:56:42.671Z,3.58
2022-10-24T23:59:28.683Z,3.80
